Clawson, MI (48017)

11:41 PM EDT on September 30, 2016 (GMT -0400)
NWClawsonMI | | Change Station

Elev 702 ft 42.54 °N, 83.16 °W | Updated 7 minutes ago

Overcast
Overcast
55.7 °F
Feels Like 55.7 °F
N
4.0
Wind Variable Wind from ESE

Today
High -- | Low -- °F
--% Chance of Precip.
Yesterday
High -- | Low -- °F
Precip. -- in
Pressure 30.13 in
Visibility 10.0 miles
Clouds Overcast 1300 ft
Dew Point 55 °F
Humidity 98%
Rainfall 1.38 in
Snow Depth Not available.
7:29 AM 7:14 PM
New Moon, 0% visible
METAR KVLL 010335Z AUTO 05006KT 10SM OVC013 14/13 A3013 RMK AO2 T01400125
Pressure 30.13 in
Visibility 10.0 miles
Clouds Overcast 1300 ft
Dew Point 55 °F
Humidity 98%
Rainfall 1.38 in
Snow Depth Not available.
7:29 AM 7:14 PM
New Moon, 0% visible
METAR KVLL 010335Z AUTO 05006KT 10SM OVC013 14/13 A3013 RMK AO2 T01400125

10-Day Weather Forecast

Almanac

Astronomy

Sep. 30, 2016 Rise Set
Actual Time
Civil Twilight
Nautical Twilight
Astronomical Twilight
Moon
Length of Visible Light
Length of Day
Tomorrow will be .
, % of the Moon is Illuminated

Today's Extremes

State Highs State Lows

Community

WunderPhotos

Upload Photos

1,942,885 photos uploaded!

WunderBlog® & News

Nearby

Air Quality

  Air Quality AQ Index Pollutant
Not available.

Snow Depth

Station Depth Elevation

Earthquake Activity

City Distance Mag. Time & Date
Minimum magnitude displayed is 2.5.

Coastal Water Temperatures

Place Temperature

Stations

Nearby Weather Stations

Station Location Temp. Windchill Dew Point Humidity Wind Precip. Elev Updated Type
                   

Watches & Warnings

There are currently no watches in effect.